sensor_id;sensor_type;location;lat;lon;timestamp;P1;P2;P0
29460;PMS7003;16428;47.836;35.106;2023-05-29T00:00:51;38.00;34.75;24.00
29460;PMS7003;16428;47.836;35.106;2023-05-29T00:03:19;49.00;39.00;27.75
29460;PMS7003;16428;47.836;35.106;2023-05-29T00:05:46;35.25;32.25;24.00
29460;PMS7003;16428;47.836;35.106;2023-05-29T00:08:14;46.00;37.50;25.50
29460;PMS7003;16428;47.836;35.106;2023-05-29T00:10:42;45.75;37.50;26.25
29460;PMS7003;16428;47.836;35.106;2023-05-29T00:13:10;47.75;38.75;25.75
29460;PMS7003;16428;47.836;35.106;2023-05-29T00:15:37;40.50;33.75;25.00
29460;PMS7003;16428;47.836;35.106;2023-05-29T00:18:04;42.00;34.50;23.25
29460;PMS7003;16428;47.836;35.106;2023-05-29T00:20:32;42.25;34.75;24.25
29460;PMS7003;16428;47.836;35.106;2023-05-29T00:23:01;45.00;35.50;23.75
29460;PMS7003;16428;47.836;35.106;2023-05-29T00:25:32;42.00;37.00;25.75
29460;PMS7003;16428;47.836;35.106;2023-05-29T00:28:00;50.00;37.25;25.00
29460;PMS7003;16428;47.836;35.106;2023-05-29T00:30:27;49.50;40.00;28.00
29460;PMS7003;16428;47.836;35.106;2023-05-29T00:32:54;47.75;36.75;26.25
29460;PMS7003;16428;47.836;35.106;2023-05-29T00:35:21;43.25;35.75;26.00
29460;PMS7003;16428;47.836;35.106;2023-05-29T00:37:48;47.00;38.75;26.50
29460;PMS7003;16428;47.836;35.106;2023-05-29T00:40:15;49.25;40.00;26.75
29460;PMS7003;16428;47.836;35.106;2023-05-29T00:42:43;48.25;40.50;28.00
29460;PMS7003;16428;47.836;35.106;2023-05-29T00:45:10;50.50;41.75;29.25
29460;PMS7003;16428;47.836;35.106;2023-05-29T00:47:37;46.75;39.00;25.75
29460;PMS7003;16428;47.836;35.106;2023-05-29T00:50:04;53.25;44.00;30.00
29460;PMS7003;16428;47.836;35.106;2023-05-29T00:52:32;53.75;44.50;31.25
29460;PMS7003;16428;47.836;35.106;2023-05-29T00:55:00;52.00;44.00;28.00
29460;PMS7003;16428;47.836;35.106;2023-05-29T00:57:29;58.75;46.75;32.25
29460;PMS7003;16428;47.836;35.106;2023-05-29T00:59:58;55.00;44.25;29.25
29460;PMS7003;16428;47.836;35.106;2023-05-29T01:02:25;50.50;42.00;29.00
29460;PMS7003;16428;47.836;35.106;2023-05-29T01:04:57;48.50;40.50;27.00
29460;PMS7003;16428;47.836;35.106;2023-05-29T01:07:24;43.00;36.25;24.50
29460;PMS7003;16428;47.836;35.106;2023-05-29T01:09:51;45.50;34.75;24.00
29460;PMS7003;16428;47.836;35.106;2023-05-29T01:12:23;39.25;32.75;22.75
29460;PMS7003;16428;47.836;35.106;2023-05-29T01:20:50;35.00;30.00;21.00
29460;PMS7003;16428;47.836;35.106;2023-05-29T01:26:41;35.75;29.75;22.50
29460;PMS7003;16428;47.836;35.106;2023-05-29T01:29:09;33.00;30.50;21.75
29460;PMS7003;16428;47.836;35.106;2023-05-29T01:31:40;34.00;32.25;24.00
29460;PMS7003;16428;47.836;35.106;2023-05-29T01:34:09;43.75;36.25;24.75
29460;PMS7003;16428;47.836;35.106;2023-05-29T01:36:37;46.75;36.50;23.50
29460;PMS7003;16428;47.836;35.106;2023-05-29T01:39:04;38.75;34.25;23.00
29460;PMS7003;16428;47.836;35.106;2023-05-29T01:41:32;36.33;33.00;22.33
29460;PMS7003;16428;47.836;35.106;2023-05-29T01:44:04;41.00;33.00;23.00
29460;PMS7003;16428;47.836;35.106;2023-05-29T01:46:36;41.50;35.00;24.00
29460;PMS7003;16428;47.836;35.106;2023-05-29T01:49:05;43.00;34.25;26.00
29460;PMS7003;16428;47.836;35.106;2023-05-29T01:51:33;42.25;34.75;25.00
29460;PMS7003;16428;47.836;35.106;2023-05-29T01:54:02;41.25;35.00;23.50
29460;PMS7003;16428;47.836;35.106;2023-05-29T01:56:31;42.00;36.00;25.50
29460;PMS7003;16428;47.836;35.106;2023-05-29T01:58:59;36.00;32.25;21.75
29460;PMS7003;16428;47.836;35.106;2023-05-29T02:01:29;45.00;36.00;25.00
29460;PMS7003;16428;47.836;35.106;2023-05-29T02:03:56;44.75;35.00;23.75
29460;PMS7003;16428;47.836;35.106;2023-05-29T02:06:23;46.75;36.75;26.25
29460;PMS7003;16428;47.836;35.106;2023-05-29T02:08:52;43.25;35.75;26.00
29460;PMS7003;16428;47.836;35.106;2023-05-29T02:11:19;42.00;36.50;25.00
29460;PMS7003;16428;47.836;35.106;2023-05-29T02:13:47;41.75;33.25;24.00
29460;PMS7003;16428;47.836;35.106;2023-05-29T02:16:14;32.75;31.50;23.75
29460;PMS7003;16428;47.836;35.106;2023-05-29T02:18:42;38.75;34.25;23.50
29460;PMS7003;16428;47.836;35.106;2023-05-29T02:21:10;37.50;33.00;23.25
29460;PMS7003;16428;47.836;35.106;2023-05-29T02:23:38;32.75;31.25;22.50
29460;PMS7003;16428;47.836;35.106;2023-05-29T02:26:06;37.25;31.50;22.50
29460;PMS7003;16428;47.836;35.106;2023-05-29T02:28:33;26.50;26.50;22.00
29460;PMS7003;16428;47.836;35.106;2023-05-29T02:31:01;36.75;33.00;23.00
29460;PMS7003;16428;47.836;35.106;2023-05-29T02:33:29;39.50;34.50;22.75
29460;PMS7003;16428;47.836;35.106;2023-05-29T02:35:56;33.25;31.75;23.00
29460;PMS7003;16428;47.836;35.106;2023-05-29T02:38:24;39.50;33.75;25.50
29460;PMS7003;16428;47.836;35.106;2023-05-29T02:40:51;37.25;32.50;23.00
29460;PMS7003;16428;47.836;35.106;2023-05-29T02:43:21;37.00;32.25;21.75
29460;PMS7003;16428;47.836;35.106;2023-05-29T02:45:48;42.25;33.50;23.00
29460;PMS7003;16428;47.836;35.106;2023-05-29T02:48:16;40.75;36.00;25.00
29460;PMS7003;16428;47.836;35.106;2023-05-29T02:50:44;40.25;34.00;23.75
29460;PMS7003;16428;47.836;35.106;2023-05-29T02:53:11;38.50;32.75;24.00
29460;PMS7003;16428;47.836;35.106;2023-05-29T02:55:38;36.75;33.00;22.00
29460;PMS7003;16428;47.836;35.106;2023-05-29T02:58:06;41.25;36.25;24.00
29460;PMS7003;16428;47.836;35.106;2023-05-29T03:00:35;46.75;36.75;25.50
29460;PMS7003;16428;47.836;35.106;2023-05-29T03:03:03;39.00;32.50;22.25
29460;PMS7003;16428;47.836;35.106;2023-05-29T03:05:31;40.00;34.25;24.00
29460;PMS7003;16428;47.836;35.106;2023-05-29T03:07:59;48.00;38.00;26.00
29460;PMS7003;16428;47.836;35.106;2023-05-29T03:10:26;51.00;42.50;26.25
29460;PMS7003;16428;47.836;35.106;2023-05-29T03:12:53;35.75;32.75;23.00
29460;PMS7003;16428;47.836;35.106;2023-05-29T03:15:21;42.75;35.50;26.00
29460;PMS7003;16428;47.836;35.106;2023-05-29T03:17:48;43.25;35.50;25.25
29460;PMS7003;16428;47.836;35.106;2023-05-29T03:20:15;36.50;32.50;24.00
29460;PMS7003;16428;47.836;35.106;2023-05-29T03:22:43;47.00;38.25;26.00
29460;PMS7003;16428;47.836;35.106;2023-05-29T03:25:10;34.00;31.75;22.75
29460;PMS7003;16428;47.836;35.106;2023-05-29T03:27:37;38.75;35.00;25.75
29460;PMS7003;16428;47.836;35.106;2023-05-29T03:30:05;38.50;33.25;22.75
29460;PMS7003;16428;47.836;35.106;2023-05-29T03:32:33;39.75;32.25;22.75
29460;PMS7003;16428;47.836;35.106;2023-05-29T03:35:00;35.50;32.25;22.00
29460;PMS7003;16428;47.836;35.106;2023-05-29T03:37:28;37.75;31.50;23.00
29460;PMS7003;16428;47.836;35.106;2023-05-29T03:39:55;39.00;31.75;22.75
29460;PMS7003;16428;47.836;35.106;2023-05-29T03:42:22;34.00;31.75;23.25
29460;PMS7003;16428;47.836;35.106;2023-05-29T03:44:50;31.50;29.00;20.25
29460;PMS7003;16428;47.836;35.106;2023-05-29T03:47:17;29.75;28.50;21.00
29460;PMS7003;16428;47.836;35.106;2023-05-29T03:49:44;29.25;27.25;20.00
29460;PMS7003;16428;47.836;35.106;2023-05-29T03:52:11;30.75;29.75;22.00
29460;PMS7003;16428;47.836;35.106;2023-05-29T03:54:39;34.75;29.50;22.00
29460;PMS7003;16428;47.836;35.106;2023-05-29T03:57:06;35.50;31.00;22.25
29460;PMS7003;16428;47.836;35.106;2023-05-29T03:59:35;36.00;29.50;21.75
29460;PMS7003;16428;47.836;35.106;2023-05-29T04:02:03;34.25;29.75;21.75
29460;PMS7003;16428;47.836;35.106;2023-05-29T04:04:31;39.50;31.00;22.50
29460;PMS7003;16428;47.836;35.106;2023-05-29T04:06:58;30.75;29.00;21.75
29460;PMS7003;16428;47.836;35.106;2023-05-29T04:09:26;46.25;39.25;26.00
29460;PMS7003;16428;47.836;35.106;2023-05-29T04:11:54;44.25;35.75;26.00
29460;PMS7003;16428;47.836;35.106;2023-05-29T04:14:22;32.50;28.25;19.50
29460;PMS7003;16428;47.836;35.106;2023-05-29T04:16:49;38.00;32.25;23.25
29460;PMS7003;16428;47.836;35.106;2023-05-29T04:19:16;41.25;36.00;26.00
29460;PMS7003;16428;47.836;35.106;2023-05-29T04:21:44;48.00;40.50;27.75
29460;PMS7003;16428;47.836;35.106;2023-05-29T04:24:11;52.25;43.25;30.25
29460;PMS7003;16428;47.836;35.106;2023-05-29T04:26:38;59.67;46.67;30.67
29460;PMS7003;16428;47.836;35.106;2023-05-29T04:29:08;49.75;41.75;28.25
29460;PMS7003;16428;47.836;35.106;2023-05-29T04:31:37;52.25;42.25;28.25
29460;PMS7003;16428;47.836;35.106;2023-05-29T04:34:05;53.50;43.75;30.00
29460;PMS7003;16428;47.836;35.106;2023-05-29T04:36:33;51.25;39.00;27.00
29460;PMS7003;16428;47.836;35.106;2023-05-29T04:39:04;38.00;32.75;22.00
29460;PMS7003;16428;47.836;35.106;2023-05-29T04:41:34;38.25;31.75;23.00
29460;PMS7003;16428;47.836;35.106;2023-05-29T04:44:02;38.00;33.25;23.00
29460;PMS7003;16428;47.836;35.106;2023-05-29T04:46:30;44.50;35.00;23.75
29460;PMS7003;16428;47.836;35.106;2023-05-29T04:48:57;53.50;41.25;26.75
29460;PMS7003;16428;47.836;35.106;2023-05-29T04:51:25;46.50;36.75;25.50
29460;PMS7003;16428;47.836;35.106;2023-05-29T04:53:52;49.25;39.00;27.00
29460;PMS7003;16428;47.836;35.106;2023-05-29T04:56:19;54.50;43.25;29.50
29460;PMS7003;16428;47.836;35.106;2023-05-29T04:58:47;54.00;42.50;28.00
29460;PMS7003;16428;47.836;35.106;2023-05-29T05:01:14;56.00;45.25;30.25
29460;PMS7003;16428;47.836;35.106;2023-05-29T05:03:42;39.75;34.00;25.00
29460;PMS7003;16428;47.836;35.106;2023-05-29T05:06:09;40.75;34.00;24.50
29460;PMS7003;16428;47.836;35.106;2023-05-29T05:08:37;62.00;49.50;32.25
29460;PMS7003;16428;47.836;35.106;2023-05-29T05:11:04;48.25;37.75;26.75
29460;PMS7003;16428;47.836;35.106;2023-05-29T05:13:33;48.50;39.00;27.00
29460;PMS7003;16428;47.836;35.106;2023-05-29T05:16:00;48.00;39.00;26.25
29460;PMS7003;16428;47.836;35.106;2023-05-29T05:18:28;57.75;46.75;32.50
29460;PMS7003;16428;47.836;35.106;2023-05-29T05:20:55;56.25;46.25;32.50
29460;PMS7003;16428;47.836;35.106;2023-05-29T05:23:24;49.75;42.50;27.00
29460;PMS7003;16428;47.836;35.106;2023-05-29T05:25:51;54.50;43.25;28.75
29460;PMS7003;16428;47.836;35.106;2023-05-29T05:28:18;53.50;43.50;30.25
29460;PMS7003;16428;47.836;35.106;2023-05-29T05:30:45;34.50;30.50;21.75
29460;PMS7003;16428;47.836;35.106;2023-05-29T05:33:13;37.00;32.25;22.75
29460;PMS7003;16428;47.836;35.106;2023-05-29T05:35:40;44.75;36.75;25.00
29460;PMS7003;16428;47.836;35.106;2023-05-29T05:38:07;31.75;23.75;18.50
29460;PMS7003;16428;47.836;35.106;2023-05-29T05:40:35;25.20;23.40;17.20
29460;PMS7003;16428;47.836;35.106;2023-05-29T05:43:02;24.60;24.60;19.40
29460;PMS7003;16428;47.836;35.106;2023-05-29T05:45:29;28.20;28.20;20.40
29460;PMS7003;16428;47.836;35.106;2023-05-29T05:47:57;33.60;32.00;22.60
29460;PMS7003;16428;47.836;35.106;2023-05-29T05:50:24;38.60;32.00;22.00
29460;PMS7003;16428;47.836;35.106;2023-05-29T05:52:52;21.40;18.80;13.80
29460;PMS7003;16428;47.836;35.106;2023-05-29T05:55:20;45.50;37.00;26.00
29460;PMS7003;16428;47.836;35.106;2023-05-29T05:57:47;33.40;30.60;23.20
29460;PMS7003;16428;47.836;35.106;2023-05-29T06:00:14;22.00;20.20;15.80
29460;PMS7003;16428;47.836;35.106;2023-05-29T06:02:42;17.40;16.60;12.40
29460;PMS7003;16428;47.836;35.106;2023-05-29T06:05:11;19.40;16.40;14.60
29460;PMS7003;16428;47.836;35.106;2023-05-29T06:07:39;19.20;15.60;11.80
29460;PMS7003;16428;47.836;35.106;2023-05-29T06:10:07;18.40;15.60;14.00
29460;PMS7003;16428;47.836;35.106;2023-05-29T06:12:35;17.40;13.20;9.00
29460;PMS7003;16428;47.836;35.106;2023-05-29T06:15:02;17.20;15.40;12.40
29460;PMS7003;16428;47.836;35.106;2023-05-29T06:17:31;15.00;13.00;11.40
29460;PMS7003;16428;47.836;35.106;2023-05-29T06:19:58;17.00;17.00;11.60
29460;PMS7003;16428;47.836;35.106;2023-05-29T06:22:26;37.00;30.80;22.00
29460;PMS7003;16428;47.836;35.106;2023-05-29T06:24:53;29.20;29.20;23.00
29460;PMS7003;16428;47.836;35.106;2023-05-29T06:27:20;32.00;30.50;22.25
29460;PMS7003;16428;47.836;35.106;2023-05-29T06:29:50;25.40;21.60;17.60
29460;PMS7003;16428;47.836;35.106;2023-05-29T06:32:17;25.60;24.60;19.40
29460;PMS7003;16428;47.836;35.106;2023-05-29T06:34:44;20.00;17.40;13.20
29460;PMS7003;16428;47.836;35.106;2023-05-29T06:37:11;21.40;19.60;15.80
29460;PMS7003;16428;47.836;35.106;2023-05-29T06:39:38;25.40;23.00;19.20
29460;PMS7003;16428;47.836;35.106;2023-05-29T06:42:08;20.20;19.60;17.00
29460;PMS7003;16428;47.836;35.106;2023-05-29T06:44:35;34.20;29.40;21.00
29460;PMS7003;16428;47.836;35.106;2023-05-29T06:47:03;28.60;27.40;19.20
29460;PMS7003;16428;47.836;35.106;2023-05-29T06:49:33;17.80;17.60;14.40
29460;PMS7003;16428;47.836;35.106;2023-05-29T06:52:00;19.80;18.20;15.20
29460;PMS7003;16428;47.836;35.106;2023-05-29T06:54:27;21.60;18.80;15.40
29460;PMS7003;16428;47.836;35.106;2023-05-29T06:56:54;12.00;9.60;7.40
29460;PMS7003;16428;47.836;35.106;2023-05-29T06:59:37;15.20;14.60;11.20
29460;PMS7003;16428;47.836;35.106;2023-05-29T07:02:04;11.00;11.00;9.20
29460;PMS7003;16428;47.836;35.106;2023-05-29T07:04:32;12.40;12.40;10.40
29460;PMS7003;16428;47.836;35.106;2023-05-29T07:07:00;12.40;12.20;9.80
29460;PMS7003;16428;47.836;35.106;2023-05-29T07:09:27;17.60;17.60;14.00
29460;PMS7003;16428;47.836;35.106;2023-05-29T07:11:54;11.00;8.60;5.00
29460;PMS7003;16428;47.836;35.106;2023-05-29T07:14:21;14.40;12.80;9.00
29460;PMS7003;16428;47.836;35.106;2023-05-29T07:16:50;11.60;11.60;9.40
29460;PMS7003;16428;47.836;35.106;2023-05-29T07:19:17;12.00;12.00;10.60
29460;PMS7003;16428;47.836;35.106;2023-05-29T07:21:47;11.60;10.40;9.20
29460;PMS7003;16428;47.836;35.106;2023-05-29T07:24:14;16.60;16.00;15.00
29460;PMS7003;16428;47.836;35.106;2023-05-29T07:26:42;10.60;10.60;8.60
29460;PMS7003;16428;47.836;35.106;2023-05-29T07:29:09;10.00;10.00;7.60
29460;PMS7003;16428;47.836;35.106;2023-05-29T07:31:36;14.40;11.60;10.20
29460;PMS7003;16428;47.836;35.106;2023-05-29T07:34:07;15.20;13.20;10.20
29460;PMS7003;16428;47.836;35.106;2023-05-29T07:36:35;9.80;9.80;9.20
29460;PMS7003;16428;47.836;35.106;2023-05-29T07:39:03;23.20;22.40;16.60
29460;PMS7003;16428;47.836;35.106;2023-05-29T07:41:32;14.40;14.40;10.60
29460;PMS7003;16428;47.836;35.106;2023-05-29T07:43:59;15.20;13.60;10.00
29460;PMS7003;16428;47.836;35.106;2023-05-29T07:46:26;8.80;8.80;7.40
29460;PMS7003;16428;47.836;35.106;2023-05-29T07:48:54;13.60;11.60;9.00
29460;PMS7003;16428;47.836;35.106;2023-05-29T07:51:21;14.60;14.60;10.80
29460;PMS7003;16428;47.836;35.106;2023-05-29T07:53:49;19.60;15.80;13.00
29460;PMS7003;16428;47.836;35.106;2023-05-29T07:56:16;11.20;10.20;8.80
29460;PMS7003;16428;47.836;35.106;2023-05-29T07:58:43;12.20;10.00;8.00
29460;PMS7003;16428;47.836;35.106;2023-05-29T08:01:10;15.00;11.20;10.00
29460;PMS7003;16428;47.836;35.106;2023-05-29T08:03:37;16.80;16.80;13.40
29460;PMS7003;16428;47.836;35.106;2023-05-29T08:06:05;16.60;15.00;12.40
29460;PMS7003;16428;47.836;35.106;2023-05-29T08:08:34;14.20;14.00;9.60
29460;PMS7003;16428;47.836;35.106;2023-05-29T08:11:02;8.80;8.20;7.00
29460;PMS7003;16428;47.836;35.106;2023-05-29T08:13:30;15.20;13.00;11.20
29460;PMS7003;16428;47.836;35.106;2023-05-29T08:15:57;13.00;9.60;9.00
29460;PMS7003;16428;47.836;35.106;2023-05-29T08:18:25;12.20;12.20;9.20
29460;PMS7003;16428;47.836;35.106;2023-05-29T08:20:53;13.00;13.00;10.00
29460;PMS7003;16428;47.836;35.106;2023-05-29T08:23:21;7.20;7.20;7.00
29460;PMS7003;16428;47.836;35.106;2023-05-29T08:25:48;11.20;9.00;8.40
29460;PMS7003;16428;47.836;35.106;2023-05-29T08:28:15;11.00;11.00;8.20
29460;PMS7003;16428;47.836;35.106;2023-05-29T08:30:42;10.20;10.20;8.20
29460;PMS7003;16428;47.836;35.106;2023-05-29T08:33:10;7.40;7.40;6.00
29460;PMS7003;16428;47.836;35.106;2023-05-29T08:35:37;8.20;8.20;6.80
29460;PMS7003;16428;47.836;35.106;2023-05-29T08:38:04;8.60;6.80;5.40
29460;PMS7003;16428;47.836;35.106;2023-05-29T08:40:33;11.00;11.00;8.40
29460;PMS7003;16428;47.836;35.106;2023-05-29T08:43:02;7.60;7.60;6.60
29460;PMS7003;16428;47.836;35.106;2023-05-29T08:45:41;10.00;7.80;6.20
29460;PMS7003;16428;47.836;35.106;2023-05-29T08:48:11;8.40;7.60;6.00
29460;PMS7003;16428;47.836;35.106;2023-05-29T08:50:45;6.00;6.00;5.20
29460;PMS7003;16428;47.836;35.106;2023-05-29T08:53:16;11.00;7.20;6.00
29460;PMS7003;16428;47.836;35.106;2023-05-29T08:55:46;6.00;6.00;5.60
29460;PMS7003;16428;47.836;35.106;2023-05-29T08:58:15;8.60;8.60;7.40
29460;PMS7003;16428;47.836;35.106;2023-05-29T09:00:43;6.80;6.80;5.60
29460;PMS7003;16428;47.836;35.106;2023-05-29T09:03:12;7.60;7.60;6.00
29460;PMS7003;16428;47.836;35.106;2023-05-29T09:05:40;6.60;6.60;5.00
29460;PMS7003;16428;47.836;35.106;2023-05-29T09:08:08;6.60;6.60;6.20
29460;PMS7003;16428;47.836;35.106;2023-05-29T09:10:40;9.40;6.80;6.00
29460;PMS7003;16428;47.836;35.106;2023-05-29T09:13:11;9.60;7.00;6.00
29460;PMS7003;16428;47.836;35.106;2023-05-29T09:15:40;11.00;11.00;9.20
29460;PMS7003;16428;47.836;35.106;2023-05-29T09:18:10;23.20;19.20;14.80
29460;PMS7003;16428;47.836;35.106;2023-05-29T09:20:38;25.40;22.80;15.60
29460;PMS7003;16428;47.836;35.106;2023-05-29T09:23:07;14.60;14.60;12.80
29460;PMS7003;16428;47.836;35.106;2023-05-29T09:25:39;14.60;13.00;11.00
29460;PMS7003;16428;47.836;35.106;2023-05-29T09:28:09;18.00;18.00;14.20
29460;PMS7003;16428;47.836;35.106;2023-05-29T09:30:38;23.40;21.20;16.00
29460;PMS7003;16428;47.836;35.106;2023-05-29T09:33:10;18.00;18.00;14.60
29460;PMS7003;16428;47.836;35.106;2023-05-29T09:35:39;8.60;8.60;7.40
29460;PMS7003;16428;47.836;35.106;2023-05-29T09:38:11;11.00;8.80;7.80
29460;PMS7003;16428;47.836;35.106;2023-05-29T09:41:03;9.60;8.80;8.00
29460;PMS7003;16428;47.836;35.106;2023-05-29T09:43:31;9.00;7.00;6.00
29460;PMS7003;16428;47.836;35.106;2023-05-29T09:46:00;8.60;8.20;6.60
29460;PMS7003;16428;47.836;35.106;2023-05-29T09:48:29;10.60;9.00;7.00
29460;PMS7003;16428;47.836;35.106;2023-05-29T09:50:57;8.80;8.80;8.00
29460;PMS7003;16428;47.836;35.106;2023-05-29T09:53:25;12.40;11.00;9.00
29460;PMS7003;16428;47.836;35.106;2023-05-29T09:55:56;8.80;8.80;8.00
29460;PMS7003;16428;47.836;35.106;2023-05-29T09:58:25;9.00;9.00;8.00
29460;PMS7003;16428;47.836;35.106;2023-05-29T10:00:52;11.60;11.60;9.20
29460;PMS7003;16428;47.836;35.106;2023-05-29T10:03:20;16.00;12.60;10.00
29460;PMS7003;16428;47.836;35.106;2023-05-29T10:05:52;9.00;9.00;7.20
29460;PMS7003;16428;47.836;35.106;2023-05-29T10:08:31;7.00;7.00;6.00
29460;PMS7003;16428;47.836;35.106;2023-05-29T10:11:04;7.40;6.00;4.60
29460;PMS7003;16428;47.836;35.106;2023-05-29T10:13:38;8.40;8.40;7.00
29460;PMS7003;16428;47.836;35.106;2023-05-29T10:16:10;12.40;10.20;8.20
29460;PMS7003;16428;47.836;35.106;2023-05-29T10:18:42;11.60;11.60;8.60
29460;PMS7003;16428;47.836;35.106;2023-05-29T10:21:16;7.00;7.00;6.40
29460;PMS7003;16428;47.836;35.106;2023-05-29T10:23:46;12.80;11.00;9.80
29460;PMS7003;16428;47.836;35.106;2023-05-29T10:26:18;16.00;14.20;12.00
29460;PMS7003;16428;47.836;35.106;2023-05-29T10:28:55;21.20;17.20;14.00
29460;PMS7003;16428;47.836;35.106;2023-05-29T10:37:44;13.80;13.00;11.20
29460;PMS7003;16428;47.836;35.106;2023-05-29T10:40:25;16.20;14.60;11.40
29460;PMS7003;16428;47.836;35.106;2023-05-29T10:42:53;14.40;14.40;12.40
29460;PMS7003;16428;47.836;35.106;2023-05-29T10:47:54;16.20;16.20;13.00
29460;PMS7003;16428;47.836;35.106;2023-05-29T10:50:39;9.40;9.40;8.20
29460;PMS7003;16428;47.836;35.106;2023-05-29T10:53:09;8.80;8.20;6.60
29460;PMS7003;16428;47.836;35.106;2023-05-29T10:55:38;10.20;10.20;7.00
29460;PMS7003;16428;47.836;35.106;2023-05-29T10:58:07;9.00;9.00;8.00
29460;PMS7003;16428;47.836;35.106;2023-05-29T11:00:39;13.80;12.20;10.00
29460;PMS7003;16428;47.836;35.106;2023-05-29T11:03:17;27.80;26.40;19.00
29460;PMS7003;16428;47.836;35.106;2023-05-29T11:05:57;17.00;15.60;12.00
29460;PMS7003;16428;47.836;35.106;2023-05-29T11:11:35;9.60;7.80;7.20
29460;PMS7003;16428;47.836;35.106;2023-05-29T11:14:05;9.00;9.00;7.80
29460;PMS7003;16428;47.836;35.106;2023-05-29T11:19:07;11.60;11.60;8.60
29460;PMS7003;16428;47.836;35.106;2023-05-29T11:24:22;5.80;5.80;5.20
29460;PMS7003;16428;47.836;35.106;2023-05-29T11:26:51;8.20;8.20;6.20
29460;PMS7003;16428;47.836;35.106;2023-05-29T11:29:26;12.00;10.60;8.40
29460;PMS7003;16428;47.836;35.106;2023-05-29T11:31:58;13.60;10.20;9.20
29460;PMS7003;16428;47.836;35.106;2023-05-29T11:34:30;8.40;8.40;7.00
29460;PMS7003;16428;47.836;35.106;2023-05-29T11:36:59;10.00;9.20;7.80
29460;PMS7003;16428;47.836;35.106;2023-05-29T11:39:28;10.40;9.80;8.60
29460;PMS7003;16428;47.836;35.106;2023-05-29T11:41:57;18.20;18.20;13.40
29460;PMS7003;16428;47.836;35.106;2023-05-29T11:44:26;11.40;11.40;9.00
29460;PMS7003;16428;47.836;35.106;2023-05-29T11:47:00;11.40;11.00;8.80
29460;PMS7003;16428;47.836;35.106;2023-05-29T11:49:32;17.20;17.20;11.20
29460;PMS7003;16428;47.836;35.106;2023-05-29T11:52:10;13.40;13.40;9.60
29460;PMS7003;16428;47.836;35.106;2023-05-29T11:54:41;6.20;6.20;6.00
29460;PMS7003;16428;47.836;35.106;2023-05-29T11:57:18;8.60;8.60;6.60
29460;PMS7003;16428;47.836;35.106;2023-05-29T11:59:47;10.80;10.40;7.60
29460;PMS7003;16428;47.836;35.106;2023-05-29T12:02:16;13.40;12.80;10.00
29460;PMS7003;16428;47.836;35.106;2023-05-29T12:04:43;22.20;20.00;16.40
29460;PMS7003;16428;47.836;35.106;2023-05-29T12:07:17;27.40;22.20;16.00
29460;PMS7003;16428;47.836;35.106;2023-05-29T12:09:46;23.40;23.20;18.80
29460;PMS7003;16428;47.836;35.106;2023-05-29T12:12:19;22.00;20.20;15.20
29460;PMS7003;16428;47.836;35.106;2023-05-29T12:14:49;15.00;15.00;12.60
29460;PMS7003;16428;47.836;35.106;2023-05-29T12:17:18;15.20;15.00;12.40
29460;PMS7003;16428;47.836;35.106;2023-05-29T12:19:46;10.00;10.00;8.80
29460;PMS7003;16428;47.836;35.106;2023-05-29T12:22:13;6.80;6.80;5.20
29460;PMS7003;16428;47.836;35.106;2023-05-29T12:24:41;9.80;8.20;6.40
29460;PMS7003;16428;47.836;35.106;2023-05-29T12:27:09;9.40;9.40;8.00
29460;PMS7003;16428;47.836;35.106;2023-05-29T12:29:37;12.00;12.00;9.80
29460;PMS7003;16428;47.836;35.106;2023-05-29T12:32:08;12.40;12.40;10.40
29460;PMS7003;16428;47.836;35.106;2023-05-29T12:34:36;9.20;9.20;7.40
29460;PMS7003;16428;47.836;35.106;2023-05-29T12:37:07;16.60;14.40;12.20
29460;PMS7003;16428;47.836;35.106;2023-05-29T12:39:40;39.80;34.40;26.40
29460;PMS7003;16428;47.836;35.106;2023-05-29T12:42:07;32.60;30.20;22.80
29460;PMS7003;16428;47.836;35.106;2023-05-29T12:44:37;17.80;17.80;15.20
29460;PMS7003;16428;47.836;35.106;2023-05-29T12:47:05;11.80;11.80;9.60
29460;PMS7003;16428;47.836;35.106;2023-05-29T12:49:35;13.00;10.60;8.00
29460;PMS7003;16428;47.836;35.106;2023-05-29T12:52:06;20.00;15.40;12.40
29460;PMS7003;16428;47.836;35.106;2023-05-29T12:54:34;11.20;11.20;9.40
29460;PMS7003;16428;47.836;35.106;2023-05-29T12:57:01;10.20;8.60;7.00
29460;PMS7003;16428;47.836;35.106;2023-05-29T12:59:29;7.60;7.60;7.00
29460;PMS7003;16428;47.836;35.106;2023-05-29T13:01:56;12.00;11.00;9.00
29460;PMS7003;16428;47.836;35.106;2023-05-29T13:04:24;7.00;7.00;6.20
29460;PMS7003;16428;47.836;35.106;2023-05-29T13:06:51;12.80;12.80;10.60
29460;PMS7003;16428;47.836;35.106;2023-05-29T13:09:19;15.20;14.60;12.00
29460;PMS7003;16428;47.836;35.106;2023-05-29T13:11:46;21.80;20.20;15.20
29460;PMS7003;16428;47.836;35.106;2023-05-29T13:14:13;25.00;24.80;18.60
29460;PMS7003;16428;47.836;35.106;2023-05-29T13:16:40;26.20;24.80;19.00
29460;PMS7003;16428;47.836;35.106;2023-05-29T13:19:07;49.80;41.80;28.40
29460;PMS7003;16428;47.836;35.106;2023-05-29T13:21:35;14.20;14.20;12.00
29460;PMS7003;16428;47.836;35.106;2023-05-29T13:24:03;20.40;15.40;11.80
29460;PMS7003;16428;47.836;35.106;2023-05-29T13:26:33;14.00;14.00;11.60
29460;PMS7003;16428;47.836;35.106;2023-05-29T13:29:00;13.20;13.20;10.60
29460;PMS7003;16428;47.836;35.106;2023-05-29T13:31:27;18.20;18.20;15.20
29460;PMS7003;16428;47.836;35.106;2023-05-29T13:33:54;18.40;17.00;14.20
29460;PMS7003;16428;47.836;35.106;2023-05-29T13:36:21;21.40;20.80;16.80
29460;PMS7003;16428;47.836;35.106;2023-05-29T13:38:49;14.40;11.40;9.80
29460;PMS7003;16428;47.836;35.106;2023-05-29T13:41:16;12.60;11.60;9.40
29460;PMS7003;16428;47.836;35.106;2023-05-29T13:43:43;16.20;12.20;9.80
29460;PMS7003;16428;47.836;35.106;2023-05-29T13:46:12;16.00;15.60;13.40
29460;PMS7003;16428;47.836;35.106;2023-05-29T13:48:39;16.60;16.60;13.40
29460;PMS7003;16428;47.836;35.106;2023-05-29T13:51:07;16.80;13.40;11.00
29460;PMS7003;16428;47.836;35.106;2023-05-29T13:53:34;21.00;17.60;13.00
29460;PMS7003;16428;47.836;35.106;2023-05-29T13:56:01;19.20;19.20;17.00
29460;PMS7003;16428;47.836;35.106;2023-05-29T13:58:28;28.20;26.40;19.60
29460;PMS7003;16428;47.836;35.106;2023-05-29T14:00:56;35.80;30.20;20.60
29460;PMS7003;16428;47.836;35.106;2023-05-29T14:03:23;55.20;43.40;29.60
29460;PMS7003;16428;47.836;35.106;2023-05-29T14:05:55;50.60;42.60;29.60
29460;PMS7003;16428;47.836;35.106;2023-05-29T14:08:23;48.80;39.20;27.60
29460;PMS7003;16428;47.836;35.106;2023-05-29T14:10:51;43.80;36.60;26.60
29460;PMS7003;16428;47.836;35.106;2023-05-29T14:13:18;47.80;41.40;27.20
29460;PMS7003;16428;47.836;35.106;2023-05-29T14:15:45;47.00;38.00;25.80